TimeCDT,TemperatureF,Dew PointF,Humidity,Sea Level PressureIn,VisibilityMPH,Wind Direction,Wind SpeedMPH,Gust SpeedMPH,PrecipitationIn,Events,Conditions,WindDirDegrees,DateUTC
12:15 AM,73.4,71.6,94,29.67,10.0,SSE,8.1,-,N/A,,Clear,160,2013-09-19 05:15:00
12:35 AM,73.4,71.6,94,29.67,10.0,South,9.2,15.0,N/A,,Clear,170,2013-09-19 05:35:00
12:55 AM,73.4,71.6,94,29.66,10.0,SSE,10.4,-,N/A,,Clear,160,2013-09-19 05:55:00
1:15 AM,73.4,71.6,94,29.66,10.0,SSE,10.4,17.3,N/A,,Clear,160,2013-09-19 06:15:00
1:35 AM,73.4,71.6,94,29.66,10.0,SSE,9.2,-,N/A,,Clear,160,2013-09-19 06:35:00
1:55 AM,71.6,71.6,100,29.66,10.0,South,9.2,-,N/A,,Clear,170,2013-09-19 06:55:00
2:15 AM,71.6,71.6,100,29.67,10.0,South,9.2,15.0,N/A,,Clear,180,2013-09-19 07:15:00
2:35 AM,73.4,69.8,88,29.67,10.0,South,9.2,-,N/A,,Clear,180,2013-09-19 07:35:00
2:55 AM,71.6,69.8,94,29.67,10.0,South,8.1,-,N/A,,Clear,170,2013-09-19 07:55:00
3:15 AM,71.6,69.8,94,29.67,10.0,South,6.9,-,N/A,,Clear,170,2013-09-19 08:15:00
3:35 AM,71.6,68.0,88,29.66,10.0,South,8.1,-,N/A,,Clear,180,2013-09-19 08:35:00
3:55 AM,73.4,68.0,83,29.65,10.0,South,11.5,-,N/A,,Clear,180,2013-09-19 08:55:00
4:15 AM,73.4,68.0,83,29.65,10.0,South,9.2,17.3,N/A,,Clear,190,2013-09-19 09:15:00
4:35 AM,73.4,68.0,83,29.64,10.0,South,11.5,20.7,N/A,,Clear,190,2013-09-19 09:35:00
4:55 AM,71.6,68.0,88,29.65,10.0,South,10.4,19.6,N/A,,Clear,180,2013-09-19 09:55:00
5:15 AM,71.6,68.0,88,29.65,10.0,South,9.2,17.3,N/A,,Clear,190,2013-09-19 10:15:00
5:35 AM,71.6,68.0,88,29.65,10.0,SSW,9.2,-,N/A,,Clear,200,2013-09-19 10:35:00
5:55 AM,71.6,66.2,83,29.65,10.0,SSW,8.1,-,N/A,,Clear,200,2013-09-19 10:55:00
6:15 AM,71.6,68.0,88,29.65,10.0,SSW,9.2,16.1,N/A,,Clear,200,2013-09-19 11:15:00
6:35 AM,71.6,68.0,88,29.66,10.0,SW,8.1,-,N/A,,Clear,220,2013-09-19 11:35:00
6:55 AM,69.8,68.0,94,29.68,10.0,WSW,8.1,-,N/A,,Clear,240,2013-09-19 11:55:00
7:15 AM,69.8,68.0,94,29.68,10.0,West,9.2,-,N/A,,Clear,270,2013-09-19 12:15:00
7:35 AM,69.8,69.8,100,29.66,10.0,NNW,8.1,-,N/A,,Clear,340,2013-09-19 12:35:00
7:55 AM,71.6,69.8,94,29.66,10.0,NNW,5.8,12.7,N/A,,Clear,340,2013-09-19 12:55:00
8:15 AM,71.6,69.8,94,29.76,10.0,WSW,9.2,-,N/A,,Mostly Cloudy,240,2013-09-19 13:15:00
8:35 AM,69.8,69.8,100,29.74,9.0,SW,10.4,-,N/A,Rain,Light Rain,230,2013-09-19 13:35:00
8:55 AM,69.8,69.8,100,29.74,10.0,WSW,9.2,-,0.04,,Clear,240,2013-09-19 13:55:00
9:15 AM,69.8,69.8,100,29.75,10.0,West,9.2,-,N/A,,Clear,260,2013-09-19 14:15:00
9:35 AM,69.8,69.8,100,29.74,10.0,WSW,9.2,16.1,N/A,,Scattered Clouds,250,2013-09-19 14:35:00
9:55 AM,71.6,69.8,94,29.74,10.0,WSW,9.2,-,N/A,,Scattered Clouds,240,2013-09-19 14:55:00
10:15 AM,71.6,69.8,94,29.77,10.0,West,10.4,-,N/A,,Partly Cloudy,280,2013-09-19 15:15:00
10:35 AM,69.8,69.8,100,29.77,10.0,Calm,Calm,-,N/A,,Clear,0,2013-09-19 15:35:00
10:55 AM,69.8,69.8,100,29.77,10.0,NW,5.8,-,N/A,,Clear,320,2013-09-19 15:55:00
11:15 AM,71.6,69.8,94,29.79,10.0,WNW,8.1,-,N/A,Rain,Light Rain,300,2013-09-19 16:15:00
11:35 AM,71.6,69.8,94,29.81,10.0,West,10.4,-,N/A,,Clear,270,2013-09-19 16:35:00
11:55 AM,71.6,68.0,88,29.82,10.0,West,8.1,-,N/A,,Partly Cloudy,280,2013-09-19 16:55:00
12:15 PM,69.8,68.0,94,29.83,10.0,West,8.1,-,N/A,,Scattered Clouds,280,2013-09-19 17:15:00
12:35 PM,69.8,68.0,94,29.84,10.0,Variable,3.5,-,N/A,,Mostly Cloudy,0,2013-09-19 17:35:00
12:55 PM,71.6,68.0,88,29.83,10.0,Calm,Calm,-,N/A,,Scattered Clouds,0,2013-09-19 17:55:00
1:15 PM,69.8,69.8,100,29.82,10.0,NW,6.9,-,N/A,,Partly Cloudy,320,2013-09-19 18:15:00
1:35 PM,71.6,69.8,94,29.82,10.0,NW,9.2,-,N/A,,Mostly Cloudy,320,2013-09-19 18:35:00
1:55 PM,71.6,68.0,88,29.80,10.0,NNW,11.5,-,N/A,,Scattered Clouds,330,2013-09-19 18:55:00
2:15 PM,73.4,68.0,83,29.82,10.0,WNW,11.5,18.4,N/A,,Scattered Clouds,300,2013-09-19 19:15:00
2:35 PM,73.4,66.2,78,29.82,10.0,NW,10.4,-,N/A,,Mostly Cloudy,320,2013-09-19 19:35:00
2:55 PM,73.4,66.2,78,29.80,10.0,WNW,11.5,-,N/A,,Mostly Cloudy,300,2013-09-19 19:55:00
3:15 PM,75.2,64.4,69,29.81,10.0,NW,11.5,19.6,N/A,,Scattered Clouds,320,2013-09-19 20:15:00
3:35 PM,75.2,64.4,69,29.81,10.0,WNW,12.7,18.4,N/A,,Mostly Cloudy,300,2013-09-19 20:35:00
3:55 PM,73.4,62.6,69,29.82,10.0,NW,13.8,-,N/A,,Partly Cloudy,310,2013-09-19 20:55:00
4:15 PM,73.4,62.6,69,29.83,10.0,NW,12.7,20.7,N/A,,Clear,310,2013-09-19 21:15:00
4:35 PM,73.4,60.8,65,29.84,10.0,NW,9.2,15.0,N/A,,Mostly Cloudy,320,2013-09-19 21:35:00
4:55 PM,73.4,53.6,50,29.84,10.0,WNW,19.6,32.2,N/A,,Overcast,300,2013-09-19 21:55:00
5:15 PM,69.8,51.8,53,29.85,10.0,NW,17.3,31.1,N/A,,Scattered Clouds,310,2013-09-19 22:15:00
5:35 PM,69.8,51.8,53,29.86,10.0,NW,15.0,23.0,N/A,,Scattered Clouds,310,2013-09-19 22:35:00
5:55 PM,69.8,51.8,53,29.86,10.0,NW,15.0,20.7,N/A,,Mostly Cloudy,310,2013-09-19 22:55:00
6:15 PM,69.8,50.0,49,29.87,10.0,NW,16.1,29.9,N/A,,Mostly Cloudy,310,2013-09-19 23:15:00
6:35 PM,68.0,48.2,49,29.88,10.0,NW,13.8,21.9,N/A,,Overcast,310,2013-09-19 23:35:00
6:55 PM,68.0,48.2,49,29.87,10.0,NW,12.7,18.4,N/A,,Overcast,320,2013-09-19 23:55:00
7:15 PM,66.2,48.2,52,29.87,10.0,NNW,10.4,16.1,N/A,,Scattered Clouds,330,2013-09-20 00:15:00
7:35 PM,64.4,50.0,59,29.87,10.0,NW,6.9,-,N/A,,Clear,320,2013-09-20 00:35:00
7:55 PM,64.4,50.0,59,29.87,10.0,NW,9.2,-,N/A,,Mostly Cloudy,310,2013-09-20 00:55:00
8:15 PM,62.6,50.0,63,29.87,-9999.0,WNW,11.5,17.3,N/A,,Scattered Clouds,300,2013-09-20 01:15:00
8:35 PM,62.6,51.8,68,29.89,10.0,WNW,10.4,19.6,N/A,Rain,Light Rain,300,2013-09-20 01:35:00
8:55 PM,59.0,55.4,88,29.91,9.0,NW,9.2,17.3,N/A,,Overcast,320,2013-09-20 01:55:00
9:15 PM,59.0,55.4,88,29.91,10.0,NW,9.2,15.0,N/A,,Overcast,310,2013-09-20 02:15:00
9:35 PM,57.2,55.4,94,29.91,10.0,WNW,6.9,-,N/A,,Mostly Cloudy,300,2013-09-20 02:35:00
9:55 PM,57.2,55.4,94,29.92,10.0,WNW,8.1,-,N/A,,Mostly Cloudy,300,2013-09-20 02:55:00
10:15 PM,57.2,55.4,94,29.94,10.0,WNW,8.1,-,N/A,,Partly Cloudy,290,2013-09-20 03:15:00
10:35 PM,57.2,55.4,94,29.95,10.0,WNW,9.2,-,N/A,,Mostly Cloudy,300,2013-09-20 03:35:00
10:55 PM,57.2,55.4,94,29.96,10.0,NW,9.2,15.0,N/A,,Mostly Cloudy,310,2013-09-20 03:55:00
11:15 PM,57.2,55.4,94,29.96,10.0,NW,10.4,-,N/A,,Overcast,310,2013-09-20 04:15:00
11:35 PM,57.2,53.6,88,29.96,10.0,WNW,8.1,16.1,N/A,,Overcast,300,2013-09-20 04:35:00
11:55 PM,55.4,53.6,94,29.96,10.0,WNW,6.9,12.7,N/A,,Mostly Cloudy,290,2013-09-20 04:55:00